createdAt,value
2022-08-07T00:00:29.784Z,16.00
2022-08-07T00:02:56.893Z,15.90
2022-08-07T00:05:25.116Z,15.80
2022-08-07T00:08:00.050Z,15.70
2022-08-07T00:10:29.604Z,15.70
2022-08-07T00:13:02.083Z,15.60
2022-08-07T00:15:37.680Z,15.50
2022-08-07T00:18:26.597Z,15.50
2022-08-07T00:21:08.212Z,15.60
2022-08-07T00:23:50.718Z,15.70
2022-08-07T00:26:31.364Z,15.60
2022-08-07T00:29:04.484Z,15.60
2022-08-07T00:31:38.061Z,15.60
2022-08-07T00:34:08.535Z,15.60
2022-08-07T00:36:42.612Z,15.60
2022-08-07T00:39:16.147Z,15.60
2022-08-07T00:42:02.444Z,15.60
2022-08-07T00:44:35.556Z,15.50
2022-08-07T00:48:05.239Z,15.40
2022-08-07T00:50:19.509Z,15.30
2022-08-07T00:52:47.526Z,15.20
2022-08-07T00:55:17.490Z,15.20
2022-08-07T00:57:55.547Z,15.00
2022-08-07T01:00:24.533Z,15.10
2022-08-07T01:02:52.352Z,15.10
2022-08-07T01:05:21.227Z,15.10
2022-08-07T01:07:52.262Z,15.00
2022-08-07T01:10:19.914Z,14.90
2022-08-07T01:12:53.764Z,14.90
2022-08-07T01:15:35.846Z,14.90
2022-08-07T01:18:10.892Z,14.90
2022-08-07T01:20:57.444Z,15.00
2022-08-07T01:23:35.492Z,15.00
2022-08-07T01:26:05.967Z,15.00
2022-08-07T01:28:34.014Z,15.10
2022-08-07T01:31:02.893Z,15.10
2022-08-07T01:33:55.267Z,15.10
2022-08-07T01:36:18.031Z,15.00
2022-08-07T01:38:45.784Z,15.00
2022-08-07T01:41:13.892Z,14.90
2022-08-07T01:43:53.450Z,14.80
2022-08-07T01:50:28.973Z,14.70
2022-08-07T01:52:58.622Z,14.80
2022-08-07T01:55:40.053Z,14.80
2022-08-07T01:58:27.341Z,14.80
2022-08-07T02:01:25.058Z,14.70
2022-08-07T02:03:57.312Z,14.70
2022-08-07T02:06:31.950Z,14.60
2022-08-07T02:13:07.776Z,14.60
2022-08-07T02:15:38.592Z,14.60
2022-08-07T02:18:06.675Z,14.60
2022-08-07T02:20:36.178Z,14.50
2022-08-07T02:23:06.188Z,14.40
2022-08-07T02:26:10.371Z,14.40
2022-08-07T02:28:29.020Z,14.30
2022-08-07T02:30:57.756Z,14.20
2022-08-07T02:33:32.735Z,14.20
2022-08-07T02:36:29.683Z,14.20
2022-08-07T02:38:57.765Z,14.20
2022-08-07T02:41:26.147Z,14.20
2022-08-07T02:44:05.175Z,14.10
2022-08-07T02:46:36.727Z,14.10
2022-08-07T02:49:05.709Z,14.00
2022-08-07T02:51:49.883Z,14.00
2022-08-07T02:54:20.813Z,14.00
2022-08-07T02:56:55.430Z,13.90
2022-08-07T02:59:27.643Z,13.90
2022-08-07T03:01:57.630Z,13.90
2022-08-07T03:04:29.917Z,13.90
2022-08-07T03:06:58.202Z,14.00
2022-08-07T03:09:44.697Z,14.00
2022-08-07T03:12:22.242Z,14.00
2022-08-07T03:14:52.248Z,14.00
2022-08-07T03:17:19.951Z,13.90
2022-08-07T03:19:54.514Z,14.00
2022-08-07T03:22:24.167Z,13.90
2022-08-07T03:24:57.273Z,13.80
2022-08-07T03:27:30.580Z,13.70
2022-08-07T03:29:59.015Z,13.70
2022-08-07T03:32:32.193Z,13.60
2022-08-07T03:35:17.501Z,13.70
2022-08-07T03:37:53.344Z,13.70
2022-08-07T03:40:22.164Z,13.60
2022-08-07T03:42:51.978Z,13.50
2022-08-07T03:45:29.961Z,13.50
2022-08-07T03:47:59.373Z,13.50
2022-08-07T03:50:28.433Z,13.40
2022-08-07T03:52:59.820Z,13.50
2022-08-07T03:55:52.932Z,13.40
2022-08-07T03:59:05.574Z,13.40
2022-08-07T04:01:07.564Z,13.50
2022-08-07T04:03:53.314Z,13.40
2022-08-07T04:06:37.533Z,13.40
2022-08-07T04:09:08.462Z,13.50
2022-08-07T04:12:24.747Z,13.50
2022-08-07T04:14:39.036Z,13.40
2022-08-07T04:17:19.758Z,13.40
2022-08-07T04:19:59.204Z,13.40
2022-08-07T04:22:29.073Z,13.40
2022-08-07T04:25:01.238Z,13.40
2022-08-07T04:27:28.977Z,13.30
2022-08-07T04:30:04.705Z,13.30
2022-08-07T04:32:35.109Z,13.30
2022-08-07T04:35:11.282Z,13.30
2022-08-07T04:37:52.909Z,13.30
2022-08-07T04:40:30.142Z,13.30
2022-08-07T04:43:01.238Z,13.30
2022-08-07T04:45:57.437Z,13.40
2022-08-07T04:48:35.389Z,13.40
2022-08-07T04:51:27.614Z,13.50
2022-08-07T04:54:06.930Z,13.60
2022-08-07T04:58:12.544Z,13.70
2022-08-07T05:00:17.340Z,13.70
2022-08-07T05:03:59.777Z,13.80
2022-08-07T05:06:28.092Z,14.00
2022-08-07T05:09:06.262Z,14.10
2022-08-07T05:11:58.730Z,14.20
2022-08-07T05:14:58.947Z,14.30
2022-08-07T05:17:52.319Z,14.30
2022-08-07T05:20:27.559Z,14.20
2022-08-07T05:23:00.264Z,14.30
2022-08-07T05:26:11.103Z,14.30
2022-08-07T05:28:22.703Z,14.50
2022-08-07T05:30:52.712Z,15.10
2022-08-07T05:33:20.862Z,15.50
2022-08-07T05:35:51.025Z,15.90
2022-08-07T05:38:58.279Z,15.90
2022-08-07T05:41:15.827Z,16.00
2022-08-07T05:44:08.317Z,15.90
2022-08-07T05:46:41.077Z,15.80
2022-08-07T05:49:12.928Z,15.70
2022-08-07T05:51:47.077Z,15.50
2022-08-07T05:54:30.774Z,15.50
2022-08-07T05:57:04.166Z,15.50
2022-08-07T05:59:38.965Z,15.50
2022-08-07T06:02:28.595Z,15.60
2022-08-07T06:05:03.855Z,15.60
2022-08-07T06:08:14.429Z,15.70
2022-08-07T06:10:21.000Z,15.80
2022-08-07T06:12:50.000Z,15.90
2022-08-07T06:15:19.739Z,15.90
2022-08-07T06:17:53.338Z,15.90
2022-08-07T06:20:49.379Z,16.00
2022-08-07T06:23:46.741Z,16.10
2022-08-07T06:26:01.548Z,16.10
2022-08-07T06:28:29.180Z,16.20
2022-08-07T06:30:58.929Z,16.30
2022-08-07T06:33:26.511Z,16.40
2022-08-07T06:36:12.360Z,16.60
2022-08-07T06:38:58.523Z,16.70
2022-08-07T06:42:01.600Z,16.80
2022-08-07T06:44:21.311Z,16.90
2022-08-07T06:46:53.164Z,16.90
2022-08-07T06:49:27.254Z,17.00
2022-08-07T06:51:59.551Z,17.00
2022-08-07T06:55:33.270Z,17.00
2022-08-07T06:57:26.408Z,17.00
2022-08-07T07:00:18.069Z,17.10
2022-08-07T07:02:53.495Z,17.30
2022-08-07T07:06:02.816Z,17.50
2022-08-07T07:08:12.460Z,17.60
2022-08-07T07:10:47.513Z,17.70
2022-08-07T07:13:57.773Z,17.70
2022-08-07T07:16:38.861Z,17.80
2022-08-07T07:19:55.311Z,17.90
2022-08-07T07:22:12.010Z,17.90
2022-08-07T07:24:56.688Z,18.00
2022-08-07T07:27:58.449Z,18.10
2022-08-07T07:30:37.846Z,18.20
2022-08-07T07:33:11.914Z,18.30
2022-08-07T07:35:54.187Z,18.40
2022-08-07T07:38:31.543Z,18.50
2022-08-07T07:41:08.565Z,18.50
2022-08-07T07:44:13.859Z,18.60
2022-08-07T07:46:37.414Z,18.70
2022-08-07T07:50:36.682Z,18.80
2022-08-07T07:52:09.623Z,18.80
2022-08-07T07:54:37.766Z,18.90
2022-08-07T07:57:09.459Z,19.00
2022-08-07T07:59:52.620Z,19.20
2022-08-07T08:02:34.189Z,19.20
2022-08-07T08:05:14.148Z,19.30
2022-08-07T08:07:59.619Z,19.40
2022-08-07T08:10:35.647Z,19.40
2022-08-07T08:13:10.616Z,19.50
2022-08-07T08:15:58.793Z,19.60
2022-08-07T08:18:32.386Z,19.80
2022-08-07T08:21:02.175Z,19.80
2022-08-07T08:23:51.353Z,19.80
2022-08-07T08:26:37.951Z,19.90
2022-08-07T08:29:06.190Z,20.00
2022-08-07T08:31:59.193Z,20.10
2022-08-07T08:34:29.146Z,20.20
2022-08-07T08:36:58.824Z,20.20
2022-08-07T08:39:39.727Z,20.10
2022-08-07T08:42:43.460Z,20.10
2022-08-07T08:45:58.752Z,20.20
2022-08-07T08:48:38.511Z,20.30
2022-08-07T08:51:26.201Z,20.30
2022-08-07T08:54:24.991Z,20.30
2022-08-07T08:56:54.240Z,20.40
2022-08-07T09:00:04.775Z,20.60
2022-08-07T09:02:58.650Z,20.60
2022-08-07T09:06:14.116Z,20.60
2022-08-07T09:09:03.485Z,20.60
2022-08-07T09:12:02.781Z,20.80
2022-08-07T09:16:23.930Z,20.80
2022-08-07T09:18:33.503Z,20.90
2022-08-07T09:22:22.754Z,20.90
2022-08-07T09:25:14.761Z,21.00
2022-08-07T09:28:01.741Z,21.10
2022-08-07T09:30:54.934Z,21.10
2022-08-07T09:33:56.941Z,21.10
2022-08-07T09:36:35.652Z,21.10
2022-08-07T09:39:53.611Z,21.20
2022-08-07T09:42:29.293Z,21.30
2022-08-07T09:47:25.127Z,21.30
2022-08-07T09:49:09.486Z,21.40
2022-08-07T09:52:09.852Z,21.50
2022-08-07T09:57:46.843Z,21.70
2022-08-07T10:00:18.826Z,21.70
2022-08-07T10:04:04.942Z,21.80
2022-08-07T10:06:37.823Z,21.90
2022-08-07T10:10:02.956Z,21.90
2022-08-07T10:13:29.624Z,21.90
2022-08-07T10:16:11.721Z,22.00
2022-08-07T10:19:11.651Z,21.90
2022-08-07T10:22:17.111Z,22.00
2022-08-07T10:24:57.353Z,22.10
2022-08-07T10:27:46.350Z,22.20
2022-08-07T10:30:19.491Z,22.30
2022-08-07T10:34:14.550Z,22.40
2022-08-07T10:36:52.949Z,22.50
2022-08-07T10:39:41.353Z,22.40
2022-08-07T10:42:36.362Z,22.50
2022-08-07T10:45:19.622Z,22.70
2022-08-07T10:48:44.297Z,22.70
2022-08-07T10:51:57.205Z,22.70
2022-08-07T10:54:18.313Z,22.80
2022-08-07T10:57:34.270Z,22.70
2022-08-07T11:00:07.173Z,22.80
2022-08-07T11:03:00.198Z,22.80
2022-08-07T11:05:51.085Z,22.90
2022-08-07T11:08:46.443Z,22.90
2022-08-07T11:11:27.665Z,22.80
2022-08-07T11:14:43.503Z,22.80
2022-08-07T11:17:23.174Z,22.90
2022-08-07T11:20:03.400Z,22.90
2022-08-07T11:23:03.963Z,23.00
2022-08-07T11:25:47.807Z,23.30
2022-08-07T11:28:25.371Z,23.40
2022-08-07T11:31:08.916Z,23.50
2022-08-07T11:34:00.771Z,23.40
2022-08-07T11:37:04.828Z,23.40
2022-08-07T11:40:07.865Z,23.40
2022-08-07T11:42:59.103Z,23.40
2022-08-07T11:46:14.145Z,23.30
2022-08-07T11:50:25.282Z,23.40
2022-08-07T11:52:50.443Z,23.50
2022-08-07T11:56:25.484Z,23.60
2022-08-07T11:58:59.643Z,23.70
2022-08-07T12:01:59.777Z,23.90
2022-08-07T12:05:41.092Z,23.90
2022-08-07T12:08:31.806Z,24.10
2022-08-07T12:11:22.874Z,24.20
2022-08-07T12:14:08.426Z,24.20
2022-08-07T12:16:47.921Z,24.20
2022-08-07T12:20:03.178Z,24.40
2022-08-07T12:23:17.914Z,24.50
2022-08-07T12:26:23.495Z,24.60
2022-08-07T12:29:15.108Z,24.60
2022-08-07T12:32:04.755Z,24.60
2022-08-07T12:34:39.660Z,24.60
2022-08-07T12:37:16.892Z,24.30
2022-08-07T12:39:52.554Z,24.40
2022-08-07T12:42:27.511Z,24.50
2022-08-07T12:44:59.283Z,24.50
2022-08-07T12:48:13.324Z,24.60
2022-08-07T12:51:17.092Z,24.50
2022-08-07T12:54:02.860Z,24.50
2022-08-07T12:56:51.098Z,24.60
2022-08-07T12:59:54.819Z,24.70
2022-08-07T13:02:56.733Z,24.90
2022-08-07T13:06:03.764Z,25.00
2022-08-07T13:10:20.354Z,24.90
2022-08-07T13:12:53.497Z,24.90
2022-08-07T13:15:39.047Z,24.90
2022-08-07T13:18:25.919Z,25.00
2022-08-07T13:24:01.363Z,24.90
2022-08-07T13:26:19.662Z,24.80
2022-08-07T13:29:02.212Z,24.90
2022-08-07T13:31:57.917Z,25.00
2022-08-07T13:34:51.523Z,25.00
2022-08-07T13:37:55.446Z,25.00
2022-08-07T13:40:42.406Z,25.10
2022-08-07T13:43:15.303Z,25.10
2022-08-07T13:46:12.285Z,25.20
2022-08-07T13:48:38.601Z,25.10
2022-08-07T13:51:28.099Z,25.00
2022-08-07T13:54:03.350Z,24.90
2022-08-07T13:56:35.419Z,25.00
2022-08-07T13:59:12.903Z,25.00
2022-08-07T14:02:07.668Z,25.00
2022-08-07T14:04:56.128Z,25.10
2022-08-07T14:07:28.871Z,25.20
2022-08-07T14:10:21.608Z,25.30
2022-08-07T14:13:00.587Z,25.40
2022-08-07T14:15:40.916Z,25.40
2022-08-07T14:18:29.351Z,25.30
2022-08-07T14:22:01.246Z,25.20
2022-08-07T14:24:33.352Z,25.30
2022-08-07T14:28:11.703Z,25.20
2022-08-07T14:30:07.249Z,25.10
2022-08-07T14:32:45.824Z,25.10
2022-08-07T14:35:43.207Z,25.20
2022-08-07T14:38:26.696Z,25.30
2022-08-07T14:41:04.837Z,25.30
2022-08-07T14:43:55.809Z,25.30
2022-08-07T14:49:17.267Z,25.40
2022-08-07T14:52:10.297Z,25.60
2022-08-07T14:58:55.032Z,25.50
2022-08-07T15:01:42.250Z,25.50
2022-08-07T15:04:11.658Z,25.50
2022-08-07T15:06:40.949Z,25.60
2022-08-07T15:09:59.136Z,25.60
2022-08-07T15:12:26.096Z,25.60
2022-08-07T15:15:21.374Z,25.60
2022-08-07T15:18:05.668Z,25.50
2022-08-07T15:20:55.333Z,25.60
2022-08-07T15:25:12.748Z,25.60
2022-08-07T15:26:20.912Z,25.60
2022-08-07T15:32:01.697Z,25.50
2022-08-07T15:34:26.135Z,25.50
2022-08-07T15:39:56.879Z,25.60
2022-08-07T15:45:55.156Z,25.90
2022-08-07T15:48:26.754Z,25.80
2022-08-07T15:51:09.264Z,25.80
2022-08-07T15:53:53.789Z,25.70
2022-08-07T15:56:41.566Z,25.70
2022-08-07T15:59:16.625Z,25.60
2022-08-07T16:02:02.015Z,25.60
2022-08-07T16:04:32.318Z,25.60
2022-08-07T16:07:04.678Z,25.60
2022-08-07T16:09:40.941Z,25.60
2022-08-07T16:13:04.796Z,25.50
2022-08-07T16:16:06.560Z,25.60
2022-08-07T16:18:49.730Z,25.60
2022-08-07T16:22:01.669Z,25.60
2022-08-07T16:24:52.805Z,25.50
2022-08-07T16:27:39.974Z,25.50
2022-08-07T16:30:35.442Z,25.40
2022-08-07T16:34:03.322Z,25.40
2022-08-07T16:36:19.724Z,25.30
2022-08-07T16:39:33.753Z,25.20
2022-08-07T16:42:56.832Z,25.20
2022-08-07T16:46:40.305Z,25.20
2022-08-07T16:50:20.117Z,25.20
2022-08-07T16:53:15.021Z,25.20
2022-08-07T16:56:14.293Z,24.90
2022-08-07T16:59:46.365Z,24.80
2022-08-07T17:03:06.202Z,24.60
2022-08-07T17:06:28.470Z,24.60
2022-08-07T17:09:09.058Z,24.50
2022-08-07T17:12:44.684Z,24.50
2022-08-07T17:15:15.607Z,24.30
2022-08-07T17:17:52.043Z,24.20
2022-08-07T17:20:37.815Z,24.20
2022-08-07T17:24:14.981Z,24.20
2022-08-07T17:27:03.178Z,24.00
2022-08-07T17:30:14.176Z,23.90
2022-08-07T17:34:08.583Z,23.80
2022-08-07T17:36:26.211Z,23.80
2022-08-07T17:39:10.410Z,23.60
2022-08-07T17:42:02.187Z,23.60
2022-08-07T17:44:49.945Z,23.50
2022-08-07T17:47:53.883Z,23.40
2022-08-07T17:50:32.315Z,23.40
2022-08-07T17:57:20.151Z,23.20
2022-08-07T17:59:56.902Z,23.10
2022-08-07T18:02:56.710Z,23.00
2022-08-07T18:06:02.773Z,23.00
2022-08-07T18:08:36.531Z,22.90
2022-08-07T18:12:16.404Z,22.80
2022-08-07T18:14:46.209Z,22.70
2022-08-07T18:19:02.429Z,22.70
2022-08-07T18:21:03.743Z,22.60
2022-08-07T18:23:57.102Z,22.60
2022-08-07T18:26:50.120Z,22.50
2022-08-07T18:30:06.396Z,22.50
2022-08-07T18:33:10.690Z,22.40
2022-08-07T18:35:55.702Z,22.30
2022-08-07T18:39:01.262Z,22.20
2022-08-07T18:42:27.765Z,22.10
2022-08-07T18:45:44.210Z,22.10
2022-08-07T18:50:05.818Z,22.00
2022-08-07T18:52:52.725Z,21.90
2022-08-07T18:54:50.792Z,21.90
2022-08-07T18:57:58.715Z,21.80
2022-08-07T19:01:00.701Z,21.80
2022-08-07T19:03:52.493Z,21.70
2022-08-07T19:06:58.303Z,21.60
2022-08-07T19:10:00.790Z,21.60
2022-08-07T19:12:48.968Z,21.40
2022-08-07T19:16:04.497Z,21.40
2022-08-07T19:19:03.107Z,21.30
2022-08-07T19:22:45.061Z,21.20
2022-08-07T19:26:24.369Z,21.10
2022-08-07T19:28:58.737Z,21.00
2022-08-07T19:31:38.170Z,20.90
2022-08-07T19:34:13.611Z,20.80
2022-08-07T19:37:10.423Z,20.70
2022-08-07T19:39:57.330Z,20.60
2022-08-07T19:42:31.600Z,20.60
2022-08-07T19:45:13.330Z,20.50
2022-08-07T19:48:00.497Z,20.50
2022-08-07T19:50:44.485Z,20.50
2022-08-07T19:54:31.282Z,20.50
2022-08-07T19:57:50.909Z,20.50
2022-08-07T19:58:58.293Z,20.50
2022-08-07T20:01:52.803Z,20.50
2022-08-07T20:04:31.595Z,20.40
2022-08-07T20:07:09.351Z,20.30
2022-08-07T20:10:37.773Z,20.30
2022-08-07T20:12:38.099Z,20.40
2022-08-07T20:15:15.587Z,20.30
2022-08-07T20:18:01.368Z,20.30
2022-08-07T20:20:33.155Z,20.20
2022-08-07T20:23:23.419Z,20.10
2022-08-07T20:25:56.527Z,20.00
2022-08-07T20:28:30.711Z,19.90
2022-08-07T20:30:59.290Z,19.80
2022-08-07T20:33:37.946Z,19.80
2022-08-07T20:36:07.232Z,19.70
2022-08-07T20:38:35.539Z,19.60
2022-08-07T20:41:33.980Z,19.50
2022-08-07T20:44:05.353Z,19.50
2022-08-07T20:46:42.988Z,19.40
2022-08-07T20:49:59.052Z,19.40
2022-08-07T20:52:09.376Z,19.40
2022-08-07T20:54:54.109Z,19.50
2022-08-07T20:57:47.485Z,19.40
2022-08-07T21:00:22.404Z,19.20
2022-08-07T21:02:58.125Z,19.10
2022-08-07T21:05:50.841Z,19.00
2022-08-07T21:08:39.283Z,19.00
2022-08-07T21:11:14.768Z,19.10
2022-08-07T21:14:31.748Z,19.10
2022-08-07T21:18:00.939Z,19.20
2022-08-07T21:19:51.837Z,19.20
2022-08-07T21:22:51.362Z,19.10
2022-08-07T21:25:43.746Z,19.00
2022-08-07T21:28:48.680Z,19.00
2022-08-07T21:32:46.795Z,19.00
2022-08-07T21:35:02.918Z,18.80
2022-08-07T21:37:58.864Z,18.60
2022-08-07T21:41:10.799Z,18.50
2022-08-07T21:44:28.421Z,18.50
2022-08-07T21:47:20.782Z,18.40
2022-08-07T21:50:03.192Z,18.40
2022-08-07T21:53:16.841Z,18.30
2022-08-07T21:56:02.041Z,18.30
2022-08-07T21:58:56.719Z,18.30
2022-08-07T22:02:11.024Z,18.30
2022-08-07T22:04:27.614Z,18.20
2022-08-07T22:07:03.763Z,18.10
2022-08-07T22:09:53.617Z,18.00
2022-08-07T22:12:31.455Z,18.00
2022-08-07T22:16:42.456Z,17.80
2022-08-07T22:26:34.930Z,17.50
2022-08-07T22:33:15.158Z,17.30
2022-08-07T22:35:57.664Z,17.20
2022-08-07T22:38:33.678Z,17.20
2022-08-07T22:41:29.201Z,17.10
2022-08-07T22:44:18.699Z,17.00
2022-08-07T22:47:09.343Z,17.10
2022-08-07T22:50:09.689Z,17.10
2022-08-07T22:52:48.660Z,17.00
2022-08-07T22:55:47.475Z,16.90
2022-08-07T22:58:45.999Z,16.90
2022-08-07T23:01:49.804Z,17.00
2022-08-07T23:04:58.392Z,17.00
2022-08-07T23:07:56.210Z,16.90
2022-08-07T23:11:19.620Z,16.80
2022-08-07T23:14:31.472Z,16.70
2022-08-07T23:17:32.689Z,16.80
2022-08-07T23:20:51.518Z,16.60
2022-08-07T23:24:19.353Z,16.60
2022-08-07T23:27:34.523Z,16.60
2022-08-07T23:30:36.041Z,16.60
2022-08-07T23:34:34.105Z,16.50
2022-08-07T23:36:28.882Z,16.50
2022-08-07T23:39:08.574Z,16.40
2022-08-07T23:42:05.072Z,16.20
2022-08-07T23:45:06.249Z,16.30
2022-08-07T23:48:19.240Z,16.30
2022-08-07T23:52:57.829Z,16.20
2022-08-07T23:54:19.795Z,16.20
2022-08-07T23:57:44.789Z,16.10
